Lake Orion, MI

10:46 PM EST on December 24, 2014 (GMT -0500)
Stonegate | Change Station
CLOSE
Current Station
Personal Weather Station
Location: Lake Orion, MI
Elevation: 1000 ft
Nearby Weather Stations
Active Advisory: Special Statement Active Notice: Public Information Statement

Elev 1000 ft 42.72 °N, 83.22 °W | Updated 7 seconds ago

Snow
Snow
34.0 °F
Feels Like 28 °F
N
6.3
Wind Variable Wind from WNW
Gusts 6.3 mph

Today
High -- | Low -- °F
--% Chance of Precip.
Yesterday
High -- | Low -- °F
Precip. -- in
8:01 AM 5:04 PM
Waxing Crescent, 13% visible
Pressure 29.38 in
Visibility 7.0 miles
Clouds Overcast 700 ft
Windchill 28 °F
Dew Point 32 °F
Humidity 94%
Rainfall 0.89 in
Snow Depth Not available.
UV 0 out of 12
Pollen .10 out of 12
Air Quality Not available.
Flu Activity Not available.
SPECI KPTK 250337Z 27015G22KT 7SM -SN OVC007 01/00 A2938 RMK AO2 P0002 T00110000 $

More Conditions Fewer Conditions

Pressure 29.38 in
Visibility 7.0 miles
Clouds Overcast 700 ft
Windchill 28 °F
Dew Point 32 °F
Humidity 94%
Rainfall 0.89 in
Snow Depth Not available.
UV 0 out of 12
Pollen .10 out of 12
Air Quality Not available.
Flu Activity Not available.
SPECI KPTK 250337Z 27015G22KT 7SM -SN OVC007 01/00 A2938 RMK AO2 P0002 T00110000 $

More Conditions Fewer Conditions

10-Day Weather Forecast

Almanac

Astronomy

Dec. 24, 2014 Rise Set
Actual Time
Civil Twilight
Nautical Twilight
Astronomical Twilight
Moon
Length of Visible Light
Length of Day
Tomorrow will be .
, % of the Moon is Illuminated

Today's Extremes

State Highs State Lows

Community

WunderPhotos

Upload Photos

1,780,225 photos uploaded!

WunderBlogs® & News

Nearby

Air Quality

  Air Quality AQ Index Pollutant
Not available.

Snow Depth

Station Depth Elevation

Earthquake Activity

City Distance Mag. Time & Date
Minimum magnitude displayed is 2.5.

Coastal Water Temperatures

Place Temperature

Nearby Weather Stations